Time;durP1;ratioP1;P1;durP2;ratioP2;P2;SDS_P1;SDS_P2;PMS_P1;PMS_P2;Temp;Humidity;BMP_temperature;BMP_pressure;BME280_temperature;BME280_humidity;BME280_pressure;Samples;Min_cycle;Max_cycle;Signal;HPM_P1;HPM_P2
2021/08/06 00:00:47;;;;;;;9.55;6.65;;;;;;;18.58;77.60;99431.59;5071642;28;20194;-69
2021/08/06 00:03:33;;;;;;;6.50;5.03;;;;;;;18.59;77.32;99428.03;5071167;28;20017;-69
2021/08/06 00:06:20;;;;;;;6.78;5.72;;;;;;;18.58;77.04;99424.59;5071956;28;20345;-69
2021/08/06 00:09:09;;;;;;;8.50;6.05;;;;;;;18.57;77.89;99424.66;5073262;28;20028;-69
2021/08/06 00:11:57;;;;;;;7.38;6.00;;;;;;;18.55;76.99;99423.91;5072490;28;20025;-68
2021/08/06 00:14:43;;;;;;;6.85;5.85;;;;;;;18.51;76.97;99417.16;5072057;28;20028;-69
2021/08/06 00:17:29;;;;;;;6.63;6.03;;;;;;;18.49;76.69;99417.25;5071905;28;20057;-68
2021/08/06 00:20:15;;;;;;;7.70;6.88;;;;;;;18.43;76.74;99415.81;5071151;28;20025;-68
2021/08/06 00:23:02;;;;;;;8.85;6.80;;;;;;;18.42;77.30;99423.78;5071027;28;20050;-68
2021/08/06 00:25:48;;;;;;;9.10;6.80;;;;;;;18.42;76.69;99419.38;5072193;28;20360;-69
2021/08/06 00:28:34;;;;;;;10.88;6.95;;;;;;;18.39;76.94;99406.44;5072108;28;20020;-69
2021/08/06 00:31:20;;;;;;;10.93;7.50;;;;;;;18.30;77.53;99407.00;5071943;28;20095;-69
2021/08/06 00:34:06;;;;;;;9.45;6.63;;;;;;;18.35;77.16;99398.84;5071258;28;20024;-68
2021/08/06 00:36:52;;;;;;;10.52;7.10;;;;;;;18.22;77.74;99399.56;5071601;28;20041;-68
2021/08/06 00:39:38;;;;;;;8.90;7.50;;;;;;;18.10;78.36;99390.63;5070932;28;20099;-69
2021/08/06 00:42:24;;;;;;;8.13;7.15;;;;;;;18.23;78.04;99387.31;5070695;28;20028;-69
2021/08/06 00:45:10;;;;;;;10.32;7.20;;;;;;;18.20;77.79;99374.38;5070868;28;20075;-67
2021/08/06 00:47:56;;;;;;;8.13;7.20;;;;;;;18.07;78.14;99369.00;5071427;28;20041;-69
2021/08/06 00:50:42;;;;;;;10.18;7.85;;;;;;;17.92;78.40;99373.34;5069783;28;20357;-69
2021/08/06 00:53:28;;;;;;;8.73;7.72;;;;;;;17.85;78.89;99356.25;5070859;28;20028;-68
2021/08/06 00:56:14;;;;;;;10.70;8.20;;;;;;;17.72;79.07;99369.19;5071260;28;20022;-70
2021/08/06 00:59:00;;;;;;;8.60;7.78;;;;;;;17.94;78.12;99372.31;5072451;28;20036;-69
2021/08/06 01:02:06;;;;;;;9.65;8.65;;;;;;;17.89;78.37;99374.31;5070678;28;20139;-69
2021/08/06 01:04:58;;;;;;;10.55;8.57;;;;;;;17.73;78.02;99321.97;5071158;28;20041;-68
2021/08/06 01:07:52;;;;;;;9.25;8.45;;;;;;;17.80;77.92;99340.81;5068975;28;20274;-68
2021/08/06 01:10:49;;;;;;;13.45;10.90;;;;;;;18.03;78.25;99383.22;5070695;28;20029;-69
2021/08/06 01:13:46;;;;;;;13.73;12.32;;;;;;;17.67;78.53;99332.81;5071361;28;20218;-69
2021/08/06 01:16:35;;;;;;;13.55;12.02;;;;;;;17.63;78.19;99323.44;5070208;28;20087;-70
2021/08/06 01:19:25;;;;;;;15.27;13.13;;;;;;;17.87;78.17;99383.19;5070538;28;20017;-70
2021/08/06 01:22:19;;;;;;;13.52;12.18;;;;;;;17.51;78.30;99339.81;5071338;28;20021;-69
2021/08/06 01:25:44;;;;;;;13.60;12.20;;;;;;;17.72;79.35;99385.75;5068954;28;20036;-70
2021/08/06 01:28:34;;;;;;;15.18;13.18;;;;;;;17.64;79.15;99377.47;5071072;28;20218;-69
2021/08/06 01:31:27;;;;;;;15.30;11.95;;;;;;;17.48;78.55;99319.03;5070590;28;20024;-69
2021/08/06 01:34:13;;;;;;;12.75;11.55;;;;;;;17.84;78.65;99375.50;5071646;28;20145;-69
2021/08/06 01:36:58;;;;;;;13.10;11.27;;;;;;;17.87;78.68;99376.19;5070050;28;20028;-69
2021/08/06 01:39:45;;;;;;;12.88;11.05;;;;;;;17.75;79.07;99379.50;5070437;28;20021;-69
2021/08/06 01:43:09;;;;;;;12.27;10.90;;;;;;;17.81;79.05;99367.84;5070249;28;20330;-69
2021/08/06 01:46:04;;;;;;;14.60;11.55;;;;;;;17.56;79.33;99312.44;5071922;28;20195;-69
2021/08/06 01:48:53;;;;;;;12.18;10.23;;;;;;;17.65;79.15;99328.56;5070113;28;20025;-69
2021/08/06 01:51:42;;;;;;;11.73;10.57;;;;;;;17.57;78.86;99308.03;5070448;28;20020;-69
2021/08/06 01:54:31;;;;;;;10.98;9.88;;;;;;;17.92;79.20;99360.25;5071763;28;20032;-69
2021/08/06 01:57:18;;;;;;;12.38;11.05;;;;;;;17.89;78.69;99360.38;5069995;28;20226;-69
2021/08/06 02:00:05;;;;;;;13.13;10.90;;;;;;;17.91;78.98;99363.78;5070444;28;20066;-68
2021/08/06 02:02:51;;;;;;;11.25;10.18;;;;;;;17.94;78.80;99359.22;5072119;28;20078;-69
2021/08/06 02:05:37;;;;;;;12.60;11.18;;;;;;;17.94;78.68;99358.38;5074570;28;20025;-69
2021/08/06 02:08:23;;;;;;;12.13;9.70;;;;;;;17.97;79.21;99358.22;5074114;28;20222;-69
2021/08/06 02:11:09;;;;;;;11.95;10.23;;;;;;;17.96;79.26;99355.66;5073491;28;20321;-68
2021/08/06 02:13:55;;;;;;;11.88;10.68;;;;;;;17.94;79.68;99355.75;5074079;28;20301;-68
2021/08/06 02:16:42;;;;;;;12.23;10.65;;;;;;;17.95;79.24;99362.69;5072865;28;20037;-69
2021/08/06 02:19:30;;;;;;;11.90;10.48;;;;;;;17.58;80.10;99314.97;5073949;28;20020;-70
2021/08/06 02:22:18;;;;;;;11.43;10.23;;;;;;;17.60;79.78;99306.09;5074552;28;20091;-68
2021/08/06 02:25:07;;;;;;;11.90;10.77;;;;;;;17.73;79.31;99335.06;5073259;28;20028;-68
2021/08/06 02:27:54;;;;;;;12.82;11.18;;;;;;;17.83;80.10;99348.50;5073245;28;20025;-69
2021/08/06 02:30:41;;;;;;;12.35;11.15;;;;;;;17.96;79.37;99348.66;5073283;28;20040;-69
2021/08/06 02:33:28;;;;;;;12.68;11.15;;;;;;;18.02;79.62;99337.81;5073476;28;20021;-69
2021/08/06 02:36:14;;;;;;;14.02;11.23;;;;;;;18.03;79.60;99336.88;5074226;28;20131;-69
2021/08/06 02:39:00;;;;;;;15.52;11.95;;;;;;;18.01;79.34;99322.19;5072949;28;20028;-69
2021/08/06 02:41:47;;;;;;;15.20;13.60;;;;;;;18.05;79.66;99319.28;5072378;28;20219;-69
2021/08/06 02:44:37;;;;;;;12.82;11.45;;;;;;;18.10;78.95;99327.72;5073325;28;20332;-69
2021/08/06 02:47:23;;;;;;;13.40;11.05;;;;;;;18.14;79.31;99317.06;5072999;28;20025;-69
2021/08/06 02:50:10;;;;;;;12.43;11.15;;;;;;;18.15;79.02;99321.38;5073974;28;20017;-69
2021/08/06 02:52:56;;;;;;;12.60;11.40;;;;;;;18.17;79.45;99320.38;5073906;28;20543;-68
2021/08/06 02:55:42;;;;;;;14.88;11.15;;;;;;;18.20;78.78;99327.19;5072882;28;20101;-68
2021/08/06 02:58:28;;;;;;;13.98;12.38;;;;;;;18.22;78.90;99325.31;5072826;28;20029;-68
2021/08/06 03:01:14;;;;;;;14.70;11.70;;;;;;;18.27;78.94;99328.50;5072012;28;20037;-68
2021/08/06 03:04:00;;;;;;;19.88;13.55;;;;;;;18.03;78.52;99328.19;5073317;28;20073;-68
2021/08/06 03:06:46;;;;;;;13.85;11.70;;;;;;;18.19;78.17;99321.09;5072653;28;20029;-68
2021/08/06 03:09:32;;;;;;;13.15;11.40;;;;;;;18.22;78.47;99328.78;5072903;28;20032;-68
2021/08/06 03:12:18;;;;;;;14.80;12.10;;;;;;;18.14;78.30;99328.38;5073454;28;20056;-68
2021/08/06 03:15:04;;;;;;;16.13;13.07;;;;;;;18.07;78.87;99338.41;5070241;28;20032;-68
2021/08/06 03:17:50;;;;;;;13.38;11.82;;;;;;;18.09;78.86;99328.66;5072842;28;20090;-69
2021/08/06 03:20:36;;;;;;;13.88;11.65;;;;;;;18.20;78.30;99329.81;5073201;28;20025;-69
2021/08/06 03:23:22;;;;;;;15.95;13.45;;;;;;;17.85;78.23;99290.75;5073400;28;20024;-68
2021/08/06 03:26:08;;;;;;;17.50;12.70;;;;;;;18.23;78.28;99327.03;5072323;28;20028;-69
2021/08/06 03:28:54;;;;;;;12.65;11.38;;;;;;;18.28;78.00;99322.34;5073004;28;20025;-69
2021/08/06 03:31:40;;;;;;;19.25;14.18;;;;;;;18.16;78.26;99325.69;5072116;28;20028;-69
2021/08/06 03:34:25;;;;;;;15.57;13.98;;;;;;;18.15;77.95;99316.13;5072340;28;20028;-68
2021/08/06 03:37:11;;;;;;;17.95;13.85;;;;;;;18.22;78.37;99330.56;5071740;28;20268;-69
2021/08/06 03:39:57;;;;;;;15.93;12.75;;;;;;;18.33;77.77;99332.53;5072448;28;20071;-69
2021/08/06 03:42:43;;;;;;;16.17;13.93;;;;;;;18.33;77.41;99335.16;5072499;28;20047;-69
2021/08/06 03:45:29;;;;;;;17.40;14.20;;;;;;;18.31;78.23;99334.41;5072042;28;20029;-69
2021/08/06 03:48:15;;;;;;;15.38;13.18;;;;;;;18.31;78.34;99329.19;5072199;28;20094;-68
2021/08/06 03:51:02;;;;;;;15.85;13.85;;;;;;;18.27;77.91;99325.88;5072717;28;20118;-69
2021/08/06 03:53:47;;;;;;;14.98;13.38;;;;;;;18.37;78.14;99334.91;5072540;28;20036;-68
2021/08/06 03:56:33;;;;;;;20.80;13.60;;;;;;;18.45;78.08;99331.81;5072017;28;20024;-68
2021/08/06 03:59:19;;;;;;;18.52;14.55;;;;;;;18.37;78.43;99334.03;5073108;28;20112;-68
2021/08/06 04:02:05;;;;;;;15.75;13.55;;;;;;;18.35;78.24;99326.28;5071203;28;20039;-68
2021/08/06 04:04:51;;;;;;;16.38;14.70;;;;;;;18.29;78.94;99322.25;5071377;28;20024;-68
2021/08/06 04:07:44;;;;;;;14.52;13.02;;;;;;;18.50;78.23;99321.03;5071918;28;20037;-70
2021/08/06 04:10:31;;;;;;;18.05;14.45;;;;;;;18.50;77.98;99324.53;5071761;28;20028;-70
2021/08/06 04:13:17;;;;;;;17.08;13.05;;;;;;;18.43;78.44;99323.22;5072282;28;20136;-70
2021/08/06 04:16:03;;;;;;;18.58;13.73;;;;;;;18.24;79.18;99326.94;5070793;28;20027;-69
2021/08/06 04:18:50;;;;;;;13.75;12.35;;;;;;;18.44;78.78;99324.88;5071856;28;20029;-69
2021/08/06 04:21:36;;;;;;;17.27;14.35;;;;;;;18.51;77.99;99315.72;5072299;28;20025;-69
2021/08/06 04:24:22;;;;;;;19.50;14.38;;;;;;;18.64;77.80;99321.09;5071560;28;20253;-69
2021/08/06 04:27:08;;;;;;;16.25;14.55;;;;;;;18.65;78.01;99325.38;5071842;28;20046;-69
2021/08/06 04:29:54;;;;;;;18.55;15.45;;;;;;;18.50;78.26;99316.66;5071857;28;20024;-68
2021/08/06 04:32:40;;;;;;;20.15;14.40;;;;;;;18.63;77.60;99319.38;5071683;28;20021;-68
2021/08/06 04:35:26;;;;;;;17.17;13.27;;;;;;;18.77;77.27;99314.13;5072646;28;20321;-68
2021/08/06 04:38:12;;;;;;;17.08;14.00;;;;;;;18.89;77.16;99322.22;5071059;28;20623;-68
2021/08/06 04:40:58;;;;;;;17.98;15.45;;;;;;;18.92;77.55;99327.28;5072865;28;20326;-68
2021/08/06 04:43:44;;;;;;;20.08;16.77;;;;;;;18.89;77.27;99323.06;5070708;28;20020;-68
2021/08/06 04:46:30;;;;;;;16.90;15.18;;;;;;;18.95;77.89;99330.56;5070585;28;20036;-68
2021/08/06 04:49:16;;;;;;;19.40;16.52;;;;;;;18.98;76.87;99329.50;5070264;28;20095;-69
2021/08/06 04:52:02;;;;;;;19.95;14.93;;;;;;;19.11;76.79;99342.72;5071198;28;20028;-68
2021/08/06 04:54:47;;;;;;;17.15;14.68;;;;;;;19.17;76.47;99344.97;5072047;28;20103;-68
2021/08/06 04:57:33;;;;;;;17.90;14.43;;;;;;;19.21;76.56;99342.97;5070957;28;20056;-68
2021/08/06 05:00:20;;;;;;;22.02;14.52;;;;;;;19.29;75.76;99341.56;5070295;28;20183;-69
2021/08/06 05:03:06;;;;;;;18.98;14.45;;;;;;;19.30;76.05;99321.41;5070869;28;20017;-69
2021/08/06 05:05:51;;;;;;;17.63;14.68;;;;;;;19.39;76.01;99341.81;5071355;28;20040;-69
2021/08/06 05:08:43;;;;;;;16.85;13.23;;;;;;;19.44;75.51;99344.19;5069941;28;20252;-70
2021/08/06 05:11:29;;;;;;;16.75;13.77;;;;;;;19.38;75.40;99344.53;5071336;28;20028;-70
2021/08/06 05:14:15;;;;;;;15.70;11.98;;;;;;;19.46;75.67;99350.16;5069538;28;20036;-71
2021/08/06 05:17:01;;;;;;;17.65;12.90;;;;;;;19.41;75.44;99347.84;5070068;28;20033;-70
2021/08/06 05:19:47;;;;;;;17.15;13.00;;;;;;;19.43;75.46;99334.59;5071083;28;20323;-70
2021/08/06 05:22:33;;;;;;;18.70;12.65;;;;;;;19.43;75.55;99356.44;5071677;28;20025;-70
2021/08/06 05:25:18;;;;;;;20.65;12.63;;;;;;;19.38;76.19;99342.78;5070833;28;20020;-70
2021/08/06 05:28:04;;;;;;;17.02;12.77;;;;;;;19.49;76.01;99353.41;5069650;28;20036;-70
2021/08/06 05:30:50;;;;;;;15.60;13.13;;;;;;;19.46;75.75;99350.16;5070453;28;20326;-70
2021/08/06 05:33:36;;;;;;;16.77;13.25;;;;;;;19.38;75.82;99342.78;5071386;28;20031;-69
2021/08/06 05:36:22;;;;;;;16.42;11.82;;;;;;;19.56;75.53;99346.00;5070221;28;20025;-69
2021/08/06 05:39:08;;;;;;;15.30;13.07;;;;;;;19.56;75.67;99345.16;5072605;28;20071;-70
2021/08/06 05:41:54;;;;;;;18.02;11.85;;;;;;;19.53;76.37;99343.56;5073787;28;20044;-69
2021/08/06 05:44:39;;;;;;;20.92;12.55;;;;;;;19.49;76.50;99342.91;5074466;28;20020;-70
2021/08/06 05:47:25;;;;;;;18.17;13.13;;;;;;;19.58;76.50;99327.50;5074732;28;20043;-69
2021/08/06 05:50:13;;;;;;;16.00;12.45;;;;;;;19.81;75.47;99345.28;5074202;28;20025;-70
2021/08/06 05:52:58;;;;;;;14.77;12.70;;;;;;;19.89;75.83;99341.31;5073071;28;20036;-70
2021/08/06 05:55:45;;;;;;;20.17;14.05;;;;;;;19.91;76.05;99339.41;5072987;28;20308;-70
2021/08/06 05:58:31;;;;;;;19.13;14.55;;;;;;;19.80;75.76;99338.34;5074090;28;20054;-70
2021/08/06 06:01:17;;;;;;;21.10;13.38;;;;;;;19.81;75.58;99341.84;5073988;28;20082;-70
2021/08/06 06:04:03;;;;;;;15.30;12.65;;;;;;;19.91;75.34;99339.41;5074533;28;20208;-71
2021/08/06 06:06:49;;;;;;;25.65;13.82;;;;;;;19.83;76.42;99339.94;5073653;28;20191;-71
2021/08/06 06:09:35;;;;;;;21.27;13.43;;;;;;;19.71;77.36;99348.56;5074294;28;20021;-72
2021/08/06 06:12:21;;;;;;;19.98;14.50;;;;;;;19.73;77.22;99336.19;5074049;28;20322;-71
2021/08/06 06:15:07;;;;;;;24.90;13.65;;;;;;;19.67;76.91;99329.56;5072329;28;20286;-70
2021/08/06 06:17:53;;;;;;;20.83;13.40;;;;;;;19.88;76.09;99344.88;5072811;28;20025;-71
2021/08/06 06:20:39;;;;;;;19.23;12.77;;;;;;;19.86;75.84;99344.16;5074285;28;20031;-71
2021/08/06 06:23:25;;;;;;;19.60;12.52;;;;;;;19.93;75.30;99337.53;5073552;28;20021;-70
2021/08/06 06:26:11;;;;;;;21.45;12.50;;;;;;;19.98;75.35;99341.56;5073824;28;20104;-69
2021/08/06 06:28:57;;;;;;;17.08;12.18;;;;;;;20.14;75.13;99343.16;5074053;28;20036;-70
2021/08/06 06:31:43;;;;;;;27.25;13.90;;;;;;;20.17;75.60;99346.41;5071804;28;20104;-70
2021/08/06 06:34:29;;;;;;;19.48;13.27;;;;;;;20.23;75.95;99339.06;5073524;28;20028;-73
2021/08/06 06:37:15;;;;;;;20.20;12.80;;;;;;;20.33;75.10;99346.22;5071667;28;20033;-71
2021/08/06 06:40:00;;;;;;;21.52;14.65;;;;;;;20.37;75.39;99351.31;5072869;28;20021;-71
2021/08/06 06:42:47;;;;;;;24.05;15.65;;;;;;;20.21;75.85;99351.47;5073156;28;20025;-71
2021/08/06 06:45:33;;;;;;;15.77;13.05;;;;;;;20.39;75.08;99336.25;5074070;28;20021;-70
2021/08/06 06:48:23;;;;;;;20.60;12.90;;;;;;;20.47;75.47;99336.56;5071657;28;20348;-71
2021/08/06 06:51:09;;;;;;;21.67;15.02;;;;;;;20.41;75.99;99343.09;5073695;28;20078;-72
2021/08/06 06:53:55;;;;;;;20.30;13.57;;;;;;;20.33;75.59;99335.69;5073272;28;20104;-70
2021/08/06 06:56:41;;;;;;;18.98;13.82;;;;;;;20.38;75.05;99340.69;5073195;28;20036;-70
2021/08/06 06:59:27;;;;;;;22.73;13.70;;;;;;;20.52;74.66;99345.84;5073180;28;20024;-70
2021/08/06 07:02:12;;;;;;;21.40;15.05;;;;;;;20.46;75.26;99340.97;5072770;28;20027;-70
2021/08/06 07:04:58;;;;;;;19.25;14.77;;;;;;;20.36;75.38;99350.44;5073434;28;20098;-70
2021/08/06 07:07:44;;;;;;;25.58;15.98;;;;;;;20.29;76.55;99349.16;5072754;28;20225;-69
2021/08/06 07:10:31;;;;;;;23.27;15.70;;;;;;;20.22;75.80;99342.63;5073060;28;20048;-70
2021/08/06 07:13:17;;;;;;;29.15;16.88;;;;;;;20.26;75.44;99352.84;5072148;28;20052;-70
2021/08/06 07:16:03;;;;;;;28.70;15.73;;;;;;;20.32;75.23;99354.22;5072403;28;20032;-70
2021/08/06 07:18:49;;;;;;;26.25;16.42;;;;;;;20.22;74.67;99354.00;5072141;28;20025;-70
2021/08/06 07:21:35;;;;;;;24.08;15.93;;;;;;;20.35;74.86;99348.75;5072378;28;20073;-70
2021/08/06 07:24:20;;;;;;;25.65;15.27;;;;;;;20.32;74.46;99348.97;5072975;28;20028;-71
2021/08/06 07:27:06;;;;;;;24.15;14.07;;;;;;;20.34;74.72;99347.91;5072755;28;20025;-70
2021/08/06 07:29:52;;;;;;;22.27;14.32;;;;;;;20.34;74.56;99347.91;5073025;28;20221;-70
2021/08/06 07:32:39;;;;;;;21.15;13.60;;;;;;;20.39;74.61;99344.97;5073266;28;20024;-71
2021/08/06 07:35:28;;;;;;;18.98;12.07;;;;;;;20.65;73.43;99339.72;5073076;28;20025;-71
2021/08/06 07:38:14;;;;;;;21.92;13.27;;;;;;;20.75;73.58;99337.31;5073854;28;20048;-70
2021/08/06 07:41:00;;;;;;;20.73;11.55;;;;;;;20.81;72.59;99340.38;5072494;28;20099;-70
2021/08/06 07:43:46;;;;;;;15.48;11.55;;;;;;;20.90;72.43;99336.25;5072270;28;20211;-70
2021/08/06 07:46:32;;;;;;;22.70;12.52;;;;;;;20.92;72.02;99330.88;5072134;28;20043;-70
2021/08/06 07:49:18;;;;;;;21.55;11.77;;;;;;;21.09;71.87;99341.09;5071890;28;20028;-70
2021/08/06 07:52:04;;;;;;;18.50;11.10;;;;;;;21.05;71.44;99336.97;5071319;28;20100;-70
2021/08/06 07:54:50;;;;;;;21.25;12.75;;;;;;;21.08;71.61;99335.91;5072820;28;20206;-70
2021/08/06 07:57:36;;;;;;;21.02;12.35;;;;;;;21.05;71.09;99329.09;5071177;28;20357;-71
2021/08/06 08:00:22;;;;;;;16.75;11.10;;;;;;;20.94;71.34;99327.19;5071890;28;20040;-71
2021/08/06 08:03:08;;;;;;;18.17;11.82;;;;;;;20.92;71.82;99328.25;5072367;28;20088;-71
2021/08/06 08:05:54;;;;;;;17.05;10.90;;;;;;;21.15;71.52;99326.63;5071111;28;20020;-73
2021/08/06 08:08:40;;;;;;;21.45;12.15;;;;;;;20.98;71.99;99319.94;5071552;28;20036;-73
2021/08/06 08:11:26;;;;;;;17.58;11.75;;;;;;;21.13;71.23;99323.25;5070818;28;20329;-71
2021/08/06 08:14:12;;;;;;;17.92;12.93;;;;;;;21.13;71.86;99324.09;5072507;28;20125;-70
2021/08/06 08:16:57;;;;;;;21.38;11.95;;;;;;;21.21;71.33;99316.50;5070028;28;20032;-70
2021/08/06 08:19:45;;;;;;;17.52;11.77;;;;;;;21.29;70.87;99323.00;5071698;28;20038;-69
2021/08/06 08:22:31;;;;;;;21.88;12.75;;;;;;;21.20;71.54;99312.16;5071505;28;20025;-68
2021/08/06 08:25:17;;;;;;;17.80;12.38;;;;;;;21.32;70.85;99322.78;5071898;28;20345;-67
2021/08/06 08:28:03;;;;;;;22.40;12.32;;;;;;;21.25;71.51;99313.63;5070865;28;20074;-68
2021/08/06 08:30:48;;;;;;;20.27;11.85;;;;;;;21.31;71.71;99294.75;5072699;28;20029;-67
2021/08/06 08:33:34;;;;;;;21.60;11.75;;;;;;;21.29;71.77;99301.91;5070265;28;20057;-67
2021/08/06 08:36:21;;;;;;;17.73;12.65;;;;;;;21.33;71.50;99321.81;5070031;28;20053;-67
2021/08/06 08:39:06;;;;;;;21.42;14.52;;;;;;;21.29;72.18;99318.59;5071350;28;20021;-68
2021/08/06 08:41:52;;;;;;;21.63;12.10;;;;;;;21.32;72.66;99331.53;5070766;28;20036;-68
2021/08/06 08:44:39;;;;;;;23.45;13.32;;;;;;;21.39;72.18;99321.38;5070804;28;20025;-67
2021/08/06 08:47:25;;;;;;;20.13;13.02;;;;;;;21.50;71.73;99320.59;5071797;28;20033;-68
2021/08/06 08:50:12;;;;;;;20.65;12.88;;;;;;;21.51;72.41;99315.25;5071853;28;20089;-67
2021/08/06 08:52:57;;;;;;;19.45;14.35;;;;;;;21.33;72.29;99317.38;5067277;28;20020;-68
2021/08/06 08:55:43;;;;;;;21.45;13.73;;;;;;;21.24;72.21;99320.69;5071054;28;20024;-68
2021/08/06 08:58:29;;;;;;;20.13;13.82;;;;;;;21.40;71.69;99316.97;5070614;28;20104;-67
2021/08/06 09:01:15;;;;;;;18.10;13.75;;;;;;;21.17;72.17;99315.03;5071119;28;20321;-67
2021/08/06 09:04:01;;;;;;;20.67;14.07;;;;;;;21.41;71.38;99316.84;5070976;28;20032;-67
2021/08/06 09:06:48;;;;;;;20.00;12.85;;;;;;;21.51;71.72;99311.75;5070987;28;20044;-67
2021/08/06 09:09:34;;;;;;;22.52;13.18;;;;;;;21.68;71.42;99315.81;5070063;28;20029;-68
2021/08/06 09:12:19;;;;;;;19.25;14.85;;;;;;;21.46;71.79;99308.59;5072013;28;20049;-67
2021/08/06 09:15:06;;;;;;;19.25;14.27;;;;;;;21.71;71.45;99310.31;5074186;28;20351;-66
2021/08/06 09:17:51;;;;;;;23.13;13.02;;;;;;;21.91;71.16;99313.28;5075191;28;20221;-68
2021/08/06 09:20:39;;;;;;;14.02;10.93;;;;;;;21.97;70.04;99310.19;5074341;28;20024;-68
2021/08/06 09:23:42;;;;;;;16.20;11.70;;;;;;;21.74;70.05;99318.00;5074789;28;20033;-68
2021/08/06 09:26:40;;;;;;;18.90;11.93;;;;;;;21.63;69.87;99276.59;5075297;28;20020;-67
2021/08/06 09:29:26;;;;;;;24.55;12.23;;;;;;;21.81;70.25;99313.13;5075370;28;20078;-67
2021/08/06 09:32:12;;;;;;;15.38;11.27;;;;;;;21.86;70.04;99317.09;5073088;28;20025;-68
2021/08/06 09:34:58;;;;;;;15.38;9.63;;;;;;;22.01;69.73;99322.19;5074899;28;20029;-66
2021/08/06 09:37:44;;;;;;;19.73;10.25;;;;;;;21.96;69.60;99321.66;5073280;28;20035;-67
2021/08/06 09:40:35;;;;;;;16.30;10.60;;;;;;;21.78;69.72;99285.19;5073868;28;20226;-68
2021/08/06 09:43:21;;;;;;;17.17;11.00;;;;;;;21.97;69.68;99321.56;5072812;28;20067;-68
2021/08/06 09:46:26;;;;;;;15.25;10.40;;;;;;;21.65;70.02;99292.34;5074408;28;20039;-69
2021/08/06 09:49:12;;;;;;;16.65;11.38;;;;;;;21.76;70.66;99331.91;5073735;28;20024;-68
2021/08/06 09:51:58;;;;;;;16.02;10.93;;;;;;;21.81;70.86;99337.69;5074706;28;20117;-67
2021/08/06 09:54:50;;;;;;;17.75;11.18;;;;;;;21.86;70.94;99348.75;5073510;28;20091;-67
2021/08/06 09:57:45;;;;;;;14.65;10.73;;;;;;;21.83;71.81;99333.16;5074820;28;20048;-67
2021/08/06 10:00:32;;;;;;;21.20;11.57;;;;;;;21.88;71.94;99338.06;5073763;28;20028;-68
2021/08/06 10:03:30;;;;;;;19.83;10.98;;;;;;;22.04;71.28;99351.78;5073009;28;20348;-68
2021/08/06 10:06:19;;;;;;;14.98;11.65;;;;;;;21.72;71.31;99298.84;5073707;28;20270;-68
2021/08/06 10:09:05;;;;;;;12.20;10.32;;;;;;;22.07;71.41;99345.44;5073263;28;20024;-68
2021/08/06 10:11:51;;;;;;;15.90;11.73;;;;;;;21.95;71.83;99351.63;5073881;28;20039;-67
2021/08/06 10:14:37;;;;;;;16.90;11.32;;;;;;;21.74;72.86;99346.16;5074970;28;20044;-67
2021/08/06 10:17:23;;;;;;;22.00;11.75;;;;;;;21.91;72.58;99347.56;5073487;28;20025;-68
2021/08/06 10:20:11;;;;;;;19.45;10.55;;;;;;;21.68;73.49;99308.75;5073726;28;20100;-68
2021/08/06 10:22:57;;;;;;;17.85;11.23;;;;;;;22.05;72.86;99352.66;5074966;28;20348;-67
2021/08/06 10:25:44;;;;;;;18.00;12.35;;;;;;;21.96;73.55;99359.44;5073224;28;20099;-67
2021/08/06 10:28:31;;;;;;;16.13;11.85;;;;;;;21.83;73.51;99356.88;5072554;28;20044;-67
2021/08/06 10:31:24;;;;;;;16.20;13.20;;;;;;;21.72;73.81;99352.38;5072917;28;20024;-68
2021/08/06 10:34:13;;;;;;;14.38;12.25;;;;;;;21.54;74.96;99354.56;5074205;28;20029;-68
2021/08/06 10:36:59;;;;;;;19.77;13.48;;;;;;;21.55;76.12;99355.41;5074369;28;20334;-68
2021/08/06 10:39:45;;;;;;;16.15;11.57;;;;;;;21.54;75.85;99362.47;5073609;28;20098;-68
2021/08/06 10:42:31;;;;;;;17.83;13.93;;;;;;;21.43;75.75;99351.00;5073983;28;20059;-68
2021/08/06 10:45:16;;;;;;;17.40;13.27;;;;;;;21.50;76.40;99358.31;5073163;28;20109;-68
2021/08/06 10:48:03;;;;;;;15.23;12.38;;;;;;;21.45;75.73;99354.34;5073114;28;20274;-68
2021/08/06 10:51:14;;;;;;;14.45;12.90;;;;;;;21.44;77.73;99357.94;5073572;28;20338;-69
2021/08/06 10:54:03;;;;;;;19.02;14.70;;;;;;;21.35;77.89;99362.09;5074520;28;20029;-69
2021/08/06 10:56:48;;;;;;;20.85;15.73;;;;;;;21.23;78.89;99353.25;5071055;28;20092;-69
2021/08/06 10:59:39;;;;;;;16.42;14.73;;;;;;;21.28;79.00;99351.16;5072803;28;20103;-69
2021/08/06 11:02:33;;;;;;;23.80;17.15;;;;;;;21.20;80.74;99343.78;5073169;28;20334;-69
2021/08/06 11:05:31;;;;;;;21.23;16.90;;;;;;;21.12;80.84;99359.31;5072968;28;20031;-69
2021/08/06 11:08:46;;;;;;;19.08;14.07;;;;;;;21.28;80.09;99347.69;5072411;28;20021;-69
2021/08/06 11:11:58;;;;;;;17.30;15.50;;;;;;;21.30;81.00;99348.41;5074099;28;20033;-70
2021/08/06 11:14:46;;;;;;;19.63;16.10;;;;;;;21.35;80.17;99349.75;5073448;28;20032;-70
2021/08/06 11:17:40;;;;;;;23.58;17.67;;;;;;;21.11;82.71;99312.84;5072058;28;20039;-68
2021/08/06 11:20:26;;;;;;;22.55;19.05;;;;;;;21.26;82.30;99344.28;5071951;28;20033;-70
2021/08/06 11:23:15;;;;;;;24.08;18.38;;;;;;;21.30;82.08;99356.31;5072966;28;20041;-69
2021/08/06 11:26:18;;;;;;;30.60;19.23;;;;;;;21.07;83.19;99340.34;5072603;28;20080;-70
2021/08/06 11:29:12;;;;;;;25.15;20.38;;;;;;;20.99;83.69;99326.88;5071177;28;20025;-70
2021/08/06 11:32:09;;;;;;;24.20;20.45;;;;;;;20.66;83.92;99279.09;5073139;28;20241;-68
2021/08/06 11:35:04;;;;;;;29.40;20.00;;;;;;;20.77;83.44;99286.25;5071018;28;20032;-69
2021/08/06 11:38:03;;;;;;;25.00;22.30;;;;;;;20.62;84.43;99282.03;5073798;28;20092;-69
2021/08/06 11:40:54;;;;;;;24.35;20.73;;;;;;;20.49;84.01;99271.53;5072200;28;20021;-69
2021/08/06 11:43:40;;;;;;;27.85;21.35;;;;;;;20.82;84.50;99314.88;5072813;28;20028;-69
2021/08/06 11:46:26;;;;;;;28.10;22.33;;;;;;;20.81;85.51;99307.97;5072515;28;20040;-71
2021/08/06 11:49:11;;;;;;;28.15;21.73;;;;;;;20.76;86.03;99312.69;5071768;28;20123;-70
2021/08/06 11:51:58;;;;;;;30.27;24.42;;;;;;;20.51;87.95;99320.47;5073477;28;20020;-71
2021/08/06 11:54:53;;;;;;;30.80;25.13;;;;;;;20.28;86.25;99266.81;5072629;28;20033;-70
2021/08/06 11:57:42;;;;;;;28.80;23.58;;;;;;;20.76;86.17;99315.31;5072773;28;20055;-70
2021/08/06 12:00:28;;;;;;;29.55;23.65;;;;;;;20.50;87.62;99310.88;5071358;28;20048;-71
2021/08/06 12:03:16;;;;;;;27.20;23.15;;;;;;;20.57;87.13;99311.31;5069976;28;20626;-70
2021/08/06 12:06:02;;;;;;;26.95;24.00;;;;;;;20.58;87.08;99312.13;5072364;28;20294;-70
2021/08/06 12:08:50;;;;;;;21.90;19.70;;;;;;;20.75;86.15;99311.00;5071799;28;20024;-69
2021/08/06 12:11:45;;;;;;;31.02;24.02;;;;;;;20.41;86.57;99256.28;5073004;28;20121;-70
2021/08/06 12:14:30;;;;;;;25.85;23.20;;;;;;;20.53;87.60;99308.03;5071238;28;20063;-71
2021/08/06 12:17:19;;;;;;;27.27;22.20;;;;;;;20.47;87.60;99311.09;5070981;28;20024;-74
2021/08/06 12:20:05;;;;;;;22.13;19.80;;;;;;;20.57;86.87;99318.38;5072127;28;20040;-71
2021/08/06 12:22:51;;;;;;;24.50;22.08;;;;;;;20.71;86.66;99317.41;5070445;28;20033;-70
2021/08/06 12:25:38;;;;;;;23.20;20.80;;;;;;;20.37;87.95;99312.69;5073254;28;20233;-70
2021/08/06 12:28:24;;;;;;;21.63;19.42;;;;;;;20.24;87.56;99320.56;5071826;28;20028;-70
2021/08/06 12:31:19;;;;;;;20.98;18.85;;;;;;;20.07;87.66;99277.00;5071133;28;20051;-70
2021/08/06 12:34:11;;;;;;;24.92;21.15;;;;;;;20.10;87.93;99282.03;5072197;28;20040;-70
2021/08/06 12:37:04;;;;;;;21.90;19.60;;;;;;;20.39;87.33;99331.81;5070080;28;20035;-70
2021/08/06 12:39:52;;;;;;;24.45;19.10;;;;;;;20.46;86.98;99346.22;5069949;28;20053;-69
2021/08/06 12:42:39;;;;;;;23.23;20.83;;;;;;;20.39;87.98;99331.81;5071377;28;20381;-71
2021/08/06 12:45:25;;;;;;;21.75;18.73;;;;;;;20.52;86.63;99330.06;5070311;28;20393;-70
2021/08/06 12:48:10;;;;;;;22.25;19.92;;;;;;;20.46;87.29;99319.94;5071962;28;20036;-71
2021/08/06 12:51:16;;;;;;;25.73;22.85;;;;;;;20.32;87.54;99288.47;5070751;28;20033;-70
2021/08/06 12:54:02;;;;;;;24.85;22.20;;;;;;;20.56;88.14;99328.03;5071863;28;20040;-69